Latest Coastal Weather Observations for Hobart Airport

IDT60701

Issued at 3:25 am EST Wednesday 3 September 2014 (issued every 10 minutes, with the page automatically refreshed every 10 minutes)

About coastal observations | Map of coastal stations | Coastal observations for TAS | Marine services | Other Formats
Station Details ID: 094008 Name: HOBART AIRPORT Lat: -42.83 Lon: 147.50 Height: 4.0 m
Data from the previous 72 hours. | See also: Recent months at Hobart Airport
Date/Time
EST
Temp

°C
Wind Pressure Rain
since 9am
mm
Weather Cloud Vis
km
Sea
Height
m
Swell
Dir
 
Speed
knots
Gust
knots
hPa Trend Height
m
Period
s
Dir
03/03:00am 5.6 NW 10 11 1020.4 F 0.6 Fine Mostly clear 35 - - - -
03/02:30am 5.6 NW 9 13 1020.6 - 0.6 - Mostly clear 10 - - - -
03/02:00am 5.9 NNW 7 9 1020.8 - 0.6 - Mostly clear 10 - - - -
03/01:30am 6.0 NW 9 10 1021.1 - 0.6 - Mostly clear 10 - - - -
03/01:00am 6.1 NW 9 12 1021.1 - 0.6 - Mostly clear 10 - - - -
03/12:30am 5.4 NW 9 11 1021.0 - 0.6 - Partly cloudy 10 - - - -
03/12:00am 5.1 NNW 6 9 1021.3 R 0.6 Fine Partly cloudy 10 - - - -
 
Date/Time
EST
Temp

°C
Wind Pressure Rain
since 9am
mm
Weather Cloud Vis
km
Sea
Height
m
Swell
Dir
 
Speed
knots
Gust
knots
hPa Trend Height
m
Period
s
Dir
02/11:30pm 5.0 WNW 7 9 1021.3 - 0.6 - Partly cloudy 10 - - - -
02/11:00pm 4.8 WNW 6 8 1021.2 - 0.6 - Mostly clear 10 - - - -
02/10:30pm 5.7 WNW 6 7 1021.4 - 0.6 - Partly cloudy 10 - - - -
02/10:00pm 6.0 W 7 8 1021.3 - 0.6 - Partly cloudy 10 - - - -
02/09:30pm 6.3 WSW 8 10 1021.4 - 0.6 - Mostly clear 10 - - - -
02/09:00pm 6.0 W 7 10 1021.4 R 0.6 Fine Mostly clear 35 - - - -
02/08:30pm 6.7 W 6 7 1021.2 - 0.6 - Mostly clear 10 - - - -
02/08:00pm 7.0 WSW 5 6 1021.1 - 0.6 - Mostly clear 10 - - - -
02/07:30pm 6.0 WSW 4 5 1020.8 - 0.6 - Mostly clear 10 - - - -
02/07:00pm 7.5 SW 5 7 1020.6 - 0.6 - Mostly clear 10 - - - -
02/06:30pm 8.0 WSW 6 9 1020.4 - 0.6 - Mostly clear 10 - - - -
02/06:00pm 8.4 W 3 5 1020.0 R 0.6 Showers Partly cloudy 25 - - - -
02/05:30pm 8.5 SSW 5 8 1019.6 - 0.6 - Mostly clear 10 - - - -
02/05:00pm 8.7 SW 9 11 1019.3 - 0.4 - Mostly clear 10 - - - -
02/04:30pm 9.7 S 11 14 1018.8 - 0.4 - Mostly clear 10 - - - -
02/04:00pm 8.9 S 11 17 1018.6 - 0.4 - Mostly clear 10 - - - -
02/03:30pm 9.7 S 14 22 1018.4 - 0.2 - Mostly clear 10 - - - -
02/03:00pm 9.3 S 15 19 1018.1 R 0.2 Showers Mostly cloudy 15 - - - -
02/02:30pm 10.9 S 13 17 1017.7 - 0.2 - Mostly clear 10 - - - -
02/02:00pm 10.7 S 12 15 1017.6 - 0.0 - Mostly cloudy 10 - - - -
02/01:30pm 11.8 SSW 9 16 1017.4 - 0.0 Showers Mostly cloudy 10 - - - -
02/01:00pm 12.2 SSW 9 14 1017.5 - 0.0 - Mostly cloudy 10 - - - -
02/12:30pm 11.6 SW 9 13 1017.7 - 0.0 - Mostly cloudy 10 - - - -
02/12:00pm 11.5 SSW 11 16 1017.8 R 0.0 Distant precip. Partly cloudy 35 - - - -
02/11:30am 12.1 SW 13 18 1018.0 - 0.0 - Mostly clear 10 - - - -
02/11:00am 11.5 SW 14 18 1017.9 - 0.0 - Mostly clear 10 - - - -
02/10:30am 11.0 SW 11 17 1017.9 - 0.0 - Mostly clear 10 - - - -
02/10:00am 10.6 SW 10 15 1017.8 - 0.0 - Mostly clear 10 - - - -
02/09:30am 10.4 SW 11 13 1017.5 - 0.0 - Mostly clear 10 - - - -
02/09:00am 10.6 W 4 7 1017.4 R 7.0 Haze Mostly clear 30 - - - -
02/08:30am 9.8 WSW 8 10 1017.2 - 7.0 - Mostly clear 10 - - - -
02/08:00am 9.1 WSW 5 7 1017.1 - 7.0 - Mostly clear 10 - - - -
02/07:30am 8.0 SW 3 8 1016.9 - 7.0 - Mostly clear 10 - - - -
02/07:00am 6.8 WSW 4 6 1016.5 - 7.0 - Mostly clear 10 - - - -
02/06:30am 7.1 SSW 8 11 1016.1 - 7.0 - Mostly clear 10 - - - -
02/06:00am 7.3 SW 9 14 1015.7 R 7.0 Fine Mostly clear 35 - - - -
02/05:30am 7.5 SW 10 14 1015.1 - 7.0 - Mostly clear 10 - - - -
02/05:00am 7.5 SW 10 14 1014.6 - 7.0 - Mostly clear 10 - - - -
02/04:30am 7.5 SW 10 15 1014.1 - 7.0 - Mostly clear 10 - - - -
02/04:00am 7.8 SW 11 16 1013.7 - 7.0 - Mostly clear 10 - - - -
02/03:30am 8.1 SSW 8 12 1013.5 - 7.0 - Mostly clear 10 - - - -
02/03:00am 8.1 SW 11 14 1013.3 R 6.6 Fine Mostly cloudy 35 - - - -
02/02:30am 7.9 SSW 9 11 1013.0 - 6.6 - Mostly clear 10 - - - -
02/02:00am 7.8 SW 8 12 1013.0 - 6.6 - Mostly clear 10 - - - -
02/01:30am 8.0 SW 8 11 1012.8 - 6.6 - Mostly clear 10 - - - -
02/01:00am 7.7 SW 6 8 1012.6 - 6.6 - Mostly clear 10 - - - -
02/12:30am 7.9 SSW 4 6 1012.3 - 6.6 - Partly cloudy 10 - - - -
02/12:00am 8.1 SSW 10 14 1012.2 R 6.6 Showers Mostly cloudy 20 - - - -
 
Date/Time
EST
Temp

°C
Wind Pressure Rain
since 9am
mm
Weather Cloud Vis
km
Sea
Height
m
Swell
Dir
 
Speed
knots
Gust
knots
hPa Trend Height
m
Period
s
Dir
01/11:30pm 8.2 SSW 9 14 1011.7 - 6.6 - Mostly clear 10 - - - -
01/11:00pm 7.8 SSW 6 9 1011.6 - 6.6 - Partly cloudy 10 - - - -
01/10:30pm 8.7 WSW 7 9 1011.4 - 6.2 Showers Partly cloudy 10 - - - -
01/10:00pm 8.9 SW 10 16 1010.8 - 6.2 - Mostly clear 10 - - - -
01/09:30pm 8.9 SW 8 10 1010.6 - 6.2 - Mostly clear 10 - - - -
01/09:00pm 9.2 SW 7 9 1010.0 R 6.2 Fine Mostly cloudy 30 - - - -
01/08:30pm 9.5 SSW 9 11 1009.5 - 6.2 - Mostly clear 10 - - - -
01/08:00pm 9.2 SSW 8 12 1008.9 - 6.2 - Partly cloudy 10 - - - -
01/07:30pm 9.2 SSW 11 16 1008.7 - 6.2 - Partly cloudy 10 - - - -
01/07:00pm 9.4 SSW 11 17 1008.1 - 5.8 - Mostly clear 10 - - - -
01/06:30pm 9.3 SSW 9 12 1007.5 - 5.8 - Mostly clear 10 - - - -
01/06:00pm 9.4 SSW 9 14 1006.9 R 5.8 Recent precip. Mostly cloudy 15 - - - -
01/05:30pm 9.5 SSW 10 18 1006.2 - 5.8 Showers Mostly clear 10 - - - -
01/05:00pm 9.4 SSW 10 15 1005.6 - 5.8 - Mostly clear 10 - - - -
01/04:30pm 9.3 SSW 13 19 1005.0 - 5.6 Showers Mostly clear 10 - - - -
01/04:00pm 9.4 SSW 12 17 1004.2 - 5.2 - Mostly clear 9 - - - -
01/03:30pm 9.5 SSW 15 21 1003.7 - 4.6 Showers Mostly clear 7 - - - -
01/03:05pm 9.8 SSW 16 28 1003.2 - 3.8 Showers Mostly clear 7 - - - -
01/03:00pm 9.8 SSW 16 22 1003.0 R 3.6 Showers Mostly cloudy 7 - - - -
01/02:30pm 9.9 S 15 25 1002.7 - 2.8 Showers Mostly clear 7 - - - -
01/02:11pm 10.1 SSW 17 27 1002.4 - 2.2 Showers Mostly clear 7 - - - -
01/02:00pm 10.4 S 13 18 1002.3 - 2.0 - Mostly clear 7 - - - -
01/01:30pm 10.4 SSW 18 26 1002.1 - 1.0 Showers Mostly clear 4 - - - -
01/01:21pm 10.7 SSW 20 29 1002.0 - 0.4 Showers Mostly clear 7 - - - -
01/01:13pm 11.5 SSW 16 26 1001.7 - 0.4 Showers Mostly clear 10 - - - -
01/01:00pm 14.4 WNW 8 11 1001.5 - 0.4 - Mostly clear 10 - - - -
01/12:30pm 14.6 N 10 15 1001.0 - 0.0 Showers Mostly clear 10 - - - -
01/12:00pm 16.3 N 12 17 1000.8 F 0.0 Showers Mostly cloudy 25 - - - -
01/11:30am 16.5 N 13 18 1001.1 - 0.0 - Mostly clear 10 - - - -
01/11:00am 16.5 N 13 20 1001.4 - 0.0 - Mostly clear 10 - - - -
01/10:30am 16.0 N 13 20 1001.5 - 0.0 - Mostly clear 10 - - - -
01/10:00am 16.0 NNE 9 12 1002.2 - 0.0 - Mostly clear 10 - - - -
01/09:30am 15.5 N 10 14 1002.5 - 0.0 - Mostly clear 10 - - - -
01/09:00am 14.8 N 9 15 1003.1 F 0.0 Haze Mostly cloudy 25 - - - -
01/08:30am 14.6 N 11 16 1003.4 - 0.0 - Mostly clear 10 - - - -
01/08:00am 14.2 N 10 15 1003.7 - 0.0 - Mostly clear 10 - - - -
01/07:30am 13.6 N 6 8 1003.8 - 0.0 - Partly cloudy 10 - - - -
01/07:00am 13.9 NNE 9 14 1004.0 - 0.0 - Partly cloudy 10 - - - -
01/06:30am 14.3 NNE 9 13 1004.0 - 0.0 - - 10 - - - -
01/06:00am 14.5 N 14 20 1004.1 F 0.0 Fine Mostly cloudy 25 - - - -
01/05:30am 14.6 N 13 18 1004.2 - 0.0 - - 10 - - - -
01/05:00am 14.3 N 11 17 1004.5 - 0.0 - - 10 - - - -
01/04:30am 14.0 N 13 21 1004.6 - 0.0 - - 10 - - - -
01/04:00am 14.2 N 14 18 1004.9 - 0.0 - - 10 - - - -
01/03:30am 14.0 N 11 17 1005.3 - 0.0 - - 10 - - - -
01/03:00am 14.1 N 7 12 1005.7 F 0.0 Haze Mostly cloudy 25 - - - -
01/02:30am 14.4 N 8 15 1005.8 - 0.0 - Partly cloudy 10 - - - -
01/02:00am 14.7 N 9 13 1006.4 - 0.0 - Partly cloudy 10 - - - -
01/01:30am 14.8 N 12 19 1006.9 - 0.0 - Partly cloudy 10 - - - -
01/01:00am 14.8 N 9 15 1007.7 - 0.0 - Cloudy 10 - - - -
01/12:30am 14.3 N 11 16 1007.9 - 0.0 - Cloudy 10 - - - -
01/12:00am 14.7 N 14 22 1008.0 F 0.0 Haze Cloudy 25 - - - -
 
Date/Time
EST
Temp

°C
Wind Pressure Rain
since 9am
mm
Weather Cloud Vis
km
Sea
Height
m
Swell
Dir
 
Speed
knots
Gust
knots
hPa Trend Height
m
Period
s
Dir
31/11:30pm 14.2 NNW 12 19 1008.2 - 0.0 - Cloudy 10 - - - -
31/11:00pm 14.4 NNW 10 15 1008.5 - 0.0 - Partly cloudy 10 - - - -
31/10:30pm 14.0 N 11 15 1008.9 - 0.0 - - 10 - - - -
31/10:00pm 14.2 N 12 17 1009.3 - 0.0 - - 10 - - - -
31/09:30pm 14.4 N 13 18 1009.5 - 0.0 - - 10 - - - -
31/09:00pm 14.2 N 12 17 1009.7 F 0.0 Haze Cloudy 25 - - - -
31/08:30pm 14.0 N 13 24 1009.9 - 0.0 - - 10 - - - -
31/08:00pm 14.1 NNW 10 17 1010.3 - 0.0 - - 10 - - - -
31/07:30pm 13.8 NNW 8 16 1010.5 - 0.0 - - 10 - - - -
31/07:00pm 14.1 N 6 12 1010.7 - 0.0 - - 10 - - - -
31/06:30pm 14.3 NNE 7 9 1010.9 - 0.0 - - 10 - - - -
31/06:00pm 15.0 N 10 14 1010.7 F 0.0 Haze Mostly cloudy 25 - - - -
31/05:30pm 15.5 N 11 16 1010.8 - 0.0 - - 10 - - - -
31/05:00pm 16.4 N 12 19 1010.7 - 0.0 - - 10 - - - -
31/04:30pm 17.2 N 11 16 1010.8 - 0.0 - - 10 - - - -
31/04:00pm 18.2 N 10 14 1010.8 - 0.0 - Mostly clear 10 - - - -
31/03:30pm 18.6 NNE 6 8 1011.1 - 0.0 - Mostly clear 10 - - - -
31/03:00pm 18.1 N 8 12 1011.4 F 0.0 Haze Mostly cloudy 35 - - - -
31/02:30pm 18.1 N 9 14 1011.7 - 0.0 - - 10 - - - -
31/02:00pm 18.2 N 9 12 1012.0 - 0.0 - Mostly clear 10 - - - -
31/01:30pm 18.0 N 8 11 1012.4 - 0.0 - Mostly clear 10 - - - -
31/01:00pm 17.4 N 6 9 1012.7 - 0.0 - Mostly clear 10 - - - -
31/12:30pm 17.3 NW 8 10 1013.3 - 0.0 - Mostly clear 10 - - - -
31/12:00pm 16.5 NW 9 13 1014.0 F 0.0 Haze Mostly cloudy 35 - - - -
31/11:30am 16.8 NW 11 15 1014.4 - 0.0 - Mostly clear 10 - - - -
31/11:00am 15.9 NNW 9 14 1014.8 - 0.0 - Mostly clear 10 - - - -
31/10:30am 14.8 NNW 10 14 1015.3 - 0.0 - Mostly clear 10 - - - -
31/10:00am 13.8 N 10 15 1015.9 - 0.0 - Mostly clear 10 - - - -
31/09:30am 12.4 NNW 9 14 1016.4 - 0.0 - - 10 - - - -
31/09:00am 11.4 NNW 11 17 1016.4 F 0.0 Haze Partly cloudy 35 - - - -
31/08:30am 10.3 N 10 15 1016.9 - 0.0 - Mostly clear 10 - - - -
31/08:00am 9.0 N 11 17 1017.1 - 0.0 - Mostly clear 10 - - - -
31/07:30am 8.0 N 11 15 1017.1 - 0.0 - - 10 - - - -
31/07:00am 8.4 N 9 15 1017.0 - 0.0 - - 10 - - - -
31/06:30am 7.9 NNW 10 17 1017.1 - 0.0 - - 10 - - - -
31/06:00am 7.4 NNW 10 16 1017.1 F 0.0 Haze Partly cloudy 30 - - - -
31/05:30am 8.2 NNW 8 14 1017.4 - 0.0 - - 10 - - - -
31/05:00am 7.7 NNW 11 15 1017.3 - 0.0 - - 10 - - - -
31/04:30am 7.1 NNW 8 12 1017.6 - 0.0 - - 10 - - - -
31/04:00am 7.5 N 9 14 1017.9 - 0.0 - - 10 - - - -
31/03:30am 7.7 N 11 15 1018.2 - 0.0 - - 10 - - - -

Other Formats:

Comma delimited format used in spreadsheet applications
http://www.bom.gov.au/fwo/IDT60701/IDT60701.94975.axf

JavaScript Object Notation format (JSON) in row-major order
http://www.bom.gov.au/fwo/IDT60701/IDT60701.94975.json